^^
Saratoga-Weather Station Historical Data
Daily Summary for September 27, 2022 Units:  Both    English   Metric
Daily Weekly Monthly Yearly Custom
  High: Low: Average:
Temperature: 54.9 °F /  12.7 °C 32 °F /   °C 47.8 °F /  8.8 °C
Dew Point: 48.9 °F /  9.4 °C 32 °F /   °C 45.1 °F /  7.3 °C
Humidity: 93% % 83%
Wind Speed: 17mph /  27.4km/h - 3.6mph /  5.8km/h
Wind Gust: 17mph /  27.4km/h - -
Wind- - West
Pressure: 29.6 in /  1001.4 hPa 29.5 in /  998.0 hPa -
Precipitation: 0.76 in /  19.3 mm    
Historical Graphs
 
 
Tabular Data for September 27, 2022
Time Temperature Dew Point Pressure Wind Wind Speed Wind Gust Humidity Rainfall Rate (Hourly) solar
00:02 50.2 °F /  10.1 °C 48 °F /  8.9 °C 29.5in /  998.3hPa WSW 4.9mph /  7.9km/h 12mph /  19.3km/h 92% 0.04in /  1.0mm 0 W/m2
00:07 50.2 °F /  10.1 °C 48 °F /  8.9 °C 29.5in /  998.3hPa West 8.1mph /  13km/h 9mph /  14.5km/h 92% 0.03in /  0.8mm 0 W/m2
00:12 50 °F /  10 °C 47.8 °F /  8.8 °C 29.5in /  998.6hPa West 4mph /  6.4km/h 10mph /  16.1km/h 92% 0.02in /  0.5mm 0 W/m2
00:17 49.8 °F /  9.9 °C 47.7 °F /  8.7 °C 29.5in /  998.6hPa West 4mph /  6.4km/h 9mph /  14.5km/h 92% 0.02in /  0.5mm 0 W/m2
00:22 49.8 °F /  9.9 °C 47.8 °F /  8.8 °C 29.5in /  998.6hPa West 4mph /  6.4km/h 7mph /  11.3km/h 93% 0.02in /  0.5mm 0 W/m2
00:27 49.8 °F /  9.9 °C 47.7 °F /  8.7 °C 29.5in /  998.6hPa West 4mph /  6.4km/h 11mph /  17.7km/h 92% 0.02in /  0.5mm 0 W/m2
00:32 49.6 °F /  9.8 °C 47.5 °F /  8.6 °C 29.5in /  998.6hPa West 8.1mph /  13km/h 9mph /  14.5km/h 92% 0.02in /  0.5mm 0 W/m2
00:37 49.6 °F /  9.8 °C 47.7 °F /  8.7 °C 29.5in /  998.6hPa West 8.9mph /  14.3km/h 9mph /  14.5km/h 93% 0.02in /  0.5mm 0 W/m2
00:42 49.6 °F /  9.8 °C 47.7 °F /  8.7 °C 29.5in /  998.6hPa West 2.9mph /  4.7km/h 6mph /  9.7km/h 93% 0.02in /  0.5mm 0 W/m2
00:47 49.6 °F /  9.8 °C 47.7 °F /  8.7 °C 29.5in /  998.6hPa SW 4mph /  6.4km/h 10mph /  16.1km/h 93% 0.02in /  0.5mm 0 W/m2
00:52 49.5 °F /  9.7 °C 47.5 °F /  8.6 °C 29.5in /  998.6hPa WSW 4.9mph /  7.9km/h 10mph /  16.1km/h 93% 0.02in /  0.5mm 0 W/m2
00:57 49.5 °F /  9.7 °C 47.5 °F /  8.6 °C 29.5in /  998.6hPa WSW 4.9mph /  7.9km/h 7mph /  11.3km/h 93% 0.02in /  0.5mm 0 W/m2
01:02 49.5 °F /  9.7 °C 47.5 °F /  8.6 °C 29.5in /  998.6hPa West 6.9mph /  11.1km/h 12mph /  19.3km/h 93% 0.01in /  0.2mm 0 W/m2
01:07 49.5 °F /  9.7 °C 47.5 °F /  8.6 °C 29.5in /  998.6hPa West 4mph /  6.4km/h 9mph /  14.5km/h 93% 0.01in /  0.2mm 0 W/m2
01:12 49.5 °F /  9.7 °C 47.5 °F /  8.6 °C 29.5in /  998.6hPa WSW 4.9mph /  7.9km/h 12mph /  19.3km/h 93% 0in /  0.0mm 0 W/m2
01:17 49.5 °F /  9.7 °C 47.5 °F /  8.6 °C 29.5in /  998.6hPa West 2.9mph /  4.7km/h 14mph /  22.5km/h 93% 0in /  0.0mm 0 W/m2
01:22 49.5 °F /  9.7 °C 47.5 °F /  8.6 °C 29.5in /  998.6hPa WSW 4.9mph /  7.9km/h 10mph /  16.1km/h 93% 0in /  0.0mm 0 W/m2
01:27 49.5 °F /  9.7 °C 47.5 °F /  8.6 °C 29.5in /  998.6hPa WNW 8.1mph /  13km/h 11mph /  17.7km/h 93% 0in /  0.0mm 0 W/m2
01:32 49.5 °F /  9.7 °C 47.5 °F /  8.6 °C 29.5in /  998.6hPa WNW 4mph /  6.4km/h 9mph /  14.5km/h 93% 0in /  0.0mm 0 W/m2
01:37 49.5 °F /  9.7 °C 47.5 °F /  8.6 °C 29.5in /  998.6hPa West 12.1mph /  19.5km/h 13mph /  20.9km/h 93% 0in /  0.0mm 0 W/m2
01:42 49.5 °F /  9.7 °C 47.3 °F /  8.5 °C 29.5in /  998.6hPa West 4mph /  6.4km/h 9mph /  14.5km/h 92% 0in /  0.0mm 0 W/m2
01:47 49.5 °F /  9.7 °C 47.3 °F /  8.5 °C 29.5in /  998.6hPa West 6.9mph /  11.1km/h 12mph /  19.3km/h 92% 0in /  0.0mm 0 W/m2
01:52 49.5 °F /  9.7 °C 47.5 °F /  8.6 °C 29.5in /  998.6hPa WNW 2.9mph /  4.7km/h 7mph /  11.3km/h 93% 0in /  0.0mm 0 W/m2
01:57 49.5 °F /  9.7 °C 47.5 °F /  8.6 °C 29.5in /  998.6hPa NW 12mph /  19.3km/h 12mph /  19.3km/h 93% 0in /  0.0mm 0 W/m2
02:02 49.5 °F /  9.7 °C 47.5 °F /  8.6 °C 29.5in /  998.6hPa WNW 4.9mph /  7.9km/h 11mph /  17.7km/h 93% 0.01in /  0.2mm 0 W/m2
02:07 49.3 °F /  9.6 °C 47.3 °F /  8.5 °C 29.5in /  998.6hPa West 6.9mph /  11.1km/h 8mph /  12.9km/h 93% 0.01in /  0.2mm 0 W/m2
02:12 49.3 °F /  9.6 °C 47.3 °F /  8.5 °C 29.5in /  998.6hPa WNW 15mph /  24.1km/h 15mph /  24.1km/h 93% 0.01in /  0.2mm 0 W/m2
02:17 49.3 °F /  9.6 °C 47.3 °F /  8.5 °C 29.5in /  998.6hPa West 2mph /  3.2km/h 7mph /  11.3km/h 93% 0.01in /  0.2mm 0 W/m2
02:22 49.3 °F /  9.6 °C 47.3 °F /  8.5 °C 29.5in /  999.0hPa WSW 8.9mph /  14.3km/h 10mph /  16.1km/h 93% 0.01in /  0.2mm 0 W/m2
02:27 49.5 °F /  9.7 °C 47.5 °F /  8.6 °C 29.5in /  999.0hPa WNW 8.1mph /  13km/h 8mph /  12.9km/h 93% 0.01in /  0.2mm 0 W/m2
02:32 49.3 °F /  9.6 °C 47.1 °F /  8.4 °C 29.5in /  999.0hPa WNW 4.9mph /  7.9km/h 10mph /  16.1km/h 92% 0.01in /  0.2mm 0 W/m2
02:37 49.3 °F /  9.6 °C 47.1 °F /  8.4 °C 29.5in /  999.0hPa West 6.9mph /  11.1km/h 11mph /  17.7km/h 92% 0.01in /  0.2mm 0 W/m2
02:42 49.3 °F /  9.6 °C 47.1 °F /  8.4 °C 29.5in /  999.0hPa West 2.9mph /  4.7km/h 9mph /  14.5km/h 92% 0.01in /  0.2mm 0 W/m2
02:47 49.3 °F /  9.6 °C 47.1 °F /  8.4 °C 29.5in /  999.0hPa WSW 2.9mph /  4.7km/h 9mph /  14.5km/h 92% 0.02in /  0.5mm 0 W/m2
02:52 49.3 °F /  9.6 °C 47.1 °F /  8.4 °C 29.5in /  999.0hPa NW 4.9mph /  7.9km/h 8mph /  12.9km/h 92% 0.02in /  0.5mm 0 W/m2
02:57 49.1 °F /  9.5 °C 46.9 °F /  8.3 °C 29.5in /  999.0hPa West 2.9mph /  4.7km/h 8mph /  12.9km/h 92% 0.01in /  0.2mm 0 W/m2
03:02 48.9 °F /  9.4 °C 46.8 °F /  8.2 °C 29.5in /  999.3hPa West 6mph /  9.7km/h 10mph /  16.1km/h 92% 0.02in /  0.5mm 0 W/m2
03:07 48.9 °F /  9.4 °C 46.8 °F /  8.2 °C 29.5in /  999.0hPa West 6.9mph /  11.1km/h 10mph /  16.1km/h 92% 0.02in /  0.5mm 0 W/m2
03:12 48.9 °F /  9.4 °C 46.8 °F /  8.2 °C 29.5in /  999.3hPa WSW 4mph /  6.4km/h 7mph /  11.3km/h 92% 0.02in /  0.5mm 0 W/m2
03:17 48.9 °F /  9.4 °C 46.8 °F /  8.2 °C 29.5in /  999.3hPa West 2mph /  3.2km/h 10mph /  16.1km/h 92% 0.02in /  0.5mm 0 W/m2
03:22 48.7 °F /  9.3 °C 46.6 °F /  8.1 °C 29.5in /  999.3hPa WNW 11mph /  17.7km/h 16mph /  25.7km/h 92% 0.02in /  0.5mm 0 W/m2
03:27 48.7 °F /  9.3 °C 46.6 °F /  8.1 °C 29.5in /  999.3hPa West 8.1mph /  13km/h 9mph /  14.5km/h 92% 0.02in /  0.5mm 0 W/m2
03:33 48.7 °F /  9.3 °C 46.6 °F /  8.1 °C 29.5in /  999.3hPa West 4mph /  6.4km/h 16mph /  25.7km/h 92% 0.02in /  0.5mm 0 W/m2
03:38 48.7 °F /  9.3 °C 46.6 °F /  8.1 °C 29.5in /  999.3hPa WSW 2.9mph /  4.7km/h 7mph /  11.3km/h 92% 0.02in /  0.5mm 0 W/m2
03:43 48.6 °F /  9.2 °C 46.4 °F /  8 °C 29.5in /  999.3hPa West 2mph /  3.2km/h 10mph /  16.1km/h 92% 0.02in /  0.5mm 0 W/m2
03:48 48.6 °F /  9.2 °C 46.4 °F /  8 °C 29.5in /  999.3hPa West 4mph /  6.4km/h 9mph /  14.5km/h 92% 0.01in /  0.2mm 0 W/m2
03:53 48.6 °F /  9.2 °C 46.4 °F /  8 °C 29.5in /  999.7hPa West 6mph /  9.7km/h 8mph /  12.9km/h 92% 0.01in /  0.2mm 0 W/m2
03:58 48.4 °F /  9.1 °C 46.2 °F /  7.9 °C 29.5in /  999.7hPa WNW 6mph /  9.7km/h 10mph /  16.1km/h 92% 0.01in /  0.2mm 0 W/m2
04:03 48.4 °F /  9.1 °C 46.2 °F /  7.9 °C 29.5in /  999.7hPa West 6mph /  9.7km/h 9mph /  14.5km/h 92% 0in /  0.0mm 0 W/m2
04:08 48.4 °F /  9.1 °C 46.2 °F /  7.9 °C 29.5in /  999.7hPa West 8.1mph /  13km/h 9mph /  14.5km/h 92% 0in /  0.0mm 0 W/m2
04:13 48.2 °F /  9 °C 46 °F /  7.8 °C 29.5in /  999.7hPa WSW 4mph /  6.4km/h 10mph /  16.1km/h 92% 0in /  0.0mm 0 W/m2
04:18 48 °F /  8.9 °C 45.9 °F /  7.7 °C 29.5in /  999.7hPa West 8.1mph /  13km/h 10mph /  16.1km/h 92% 0in /  0.0mm 0 W/m2
04:23 48 °F /  8.9 °C 46 °F /  7.8 °C 29.5in /  999.7hPa West 4mph /  6.4km/h 8mph /  12.9km/h 93% 0.01in /  0.2mm 0 W/m2
04:28 47.8 °F /  8.8 °C 45.9 °F /  7.7 °C 29.5in /  999.7hPa West 4mph /  6.4km/h 9mph /  14.5km/h 93% 0.01in /  0.2mm 0 W/m2
04:33 47.8 °F /  8.8 °C 45.9 °F /  7.7 °C 29.5in /  999.7hPa SW 17mph /  27.4km/h 17mph /  27.4km/h 93% 0.01in /  0.2mm 0 W/m2
04:38 47.8 °F /  8.8 °C 45.9 °F /  7.7 °C 29.5in /  999.7hPa NW 4mph /  6.4km/h 14mph /  22.5km/h 93% 0.01in /  0.2mm 0 W/m2
04:43 47.8 °F /  8.8 °C 45.9 °F /  7.7 °C 29.5in /  1000.0hPa SW 8.9mph /  14.3km/h 12mph /  19.3km/h 93% 0.01in /  0.2mm 0 W/m2
04:48 47.8 °F /  8.8 °C 45.9 °F /  7.7 °C 29.5in /  1000.0hPa WNW 4.9mph /  7.9km/h 8mph /  12.9km/h 93% 0.01in /  0.2mm 0 W/m2
04:53 47.8 °F /  8.8 °C 45.9 °F /  7.7 °C 29.5in /  1000.0hPa WSW 2.9mph /  4.7km/h 13mph /  20.9km/h 93% 0.01in /  0.2mm 0 W/m2
04:58 47.8 °F /  8.8 °C 45.9 °F /  7.7 °C 29.5in /  1000.0hPa West 4mph /  6.4km/h 12mph /  19.3km/h 93% 0.01in /  0.2mm 0 W/m2
05:03 47.8 °F /  8.8 °C 45.9 °F /  7.7 °C 29.5in /  1000.0hPa WSW 6.9mph /  11.1km/h 11mph /  17.7km/h 93% 0.01in /  0.2mm 0 W/m2
05:08 47.8 °F /  8.8 °C 45.7 °F /  7.6 °C 29.5in /  1000.3hPa WNW 6.9mph /  11.1km/h 8mph /  12.9km/h 92% 0.01in /  0.2mm 0 W/m2
05:13 47.8 °F /  8.8 °C 45.9 °F /  7.7 °C 29.5in /  1000.3hPa NW 2.9mph /  4.7km/h 9mph /  14.5km/h 93% 0.02in /  0.5mm 0 W/m2
05:18 47.8 °F /  8.8 °C 45.9 °F /  7.7 °C 29.5in /  1000.0hPa WNW 6.9mph /  11.1km/h 10mph /  16.1km/h 93% 0.02in /  0.5mm 0 W/m2
05:23 47.8 °F /  8.8 °C 45.7 °F /  7.6 °C 29.5in /  1000.0hPa WNW 4mph /  6.4km/h 7mph /  11.3km/h 92% 0.01in /  0.2mm 0 W/m2
05:28 47.8 °F /  8.8 °C 45.7 °F /  7.6 °C 29.5in /  1000.3hPa West 6.9mph /  11.1km/h 8mph /  12.9km/h 92% 0.01in /  0.2mm 0 W/m2
05:33 47.7 °F /  8.7 °C 45.5 °F /  7.5 °C 29.5in /  1000.3hPa West 14.1mph /  22.7km/h 14mph /  22.5km/h 92% 0.01in /  0.2mm 0 W/m2
05:38 47.7 °F /  8.7 °C 45.5 °F /  7.5 °C 29.5in /  1000.3hPa WSW 12.1mph /  19.5km/h 12mph /  19.3km/h 92% 0.01in /  0.2mm 0 W/m2
05:43 47.5 °F /  8.6 °C 45.3 °F /  7.4 °C 29.5in /  1000.3hPa WSW 14mph /  22.5km/h 14mph /  22.5km/h 92% 0.01in /  0.2mm 0 W/m2
05:48 47.5 °F /  8.6 °C 45.3 °F /  7.4 °C 29.5in /  1000.3hPa West 8.1mph /  13km/h 15mph /  24.1km/h 92% 0.01in /  0.2mm 0 W/m2
05:53 47.5 °F /  8.6 °C 45.3 °F /  7.4 °C 29.5in /  1000.3hPa West 2.9mph /  4.7km/h 12mph /  19.3km/h 92% 0.01in /  0.2mm 0 W/m2
05:58 47.5 °F /  8.6 °C 45.3 °F /  7.4 °C 29.5in /  1000.3hPa West 4mph /  6.4km/h 15mph /  24.1km/h 92% 0.02in /  0.5mm 0 W/m2
06:03 47.5 °F /  8.6 °C 45.3 °F /  7.4 °C 29.5in /  1000.3hPa WNW 4.9mph /  7.9km/h 10mph /  16.1km/h 92% 0.02in /  0.5mm 0 W/m2
06:08 47.5 °F /  8.6 °C 45.5 °F /  7.5 °C 29.5in /  1000.3hPa WNW 4.9mph /  7.9km/h 6mph /  9.7km/h 93% 0.02in /  0.5mm 0 W/m2
06:13 47.5 °F /  8.6 °C 45.5 °F /  7.5 °C 29.5in /  1000.3hPa West 8.1mph /  13km/h 10mph /  16.1km/h 93% 0.02in /  0.5mm 0 W/m2
06:18 47.5 °F /  8.6 °C 45.5 °F /  7.5 °C 29.5in /  1000.3hPa WSW 4mph /  6.4km/h 8mph /  12.9km/h 93% 0.02in /  0.5mm 0 W/m2
06:23 47.5 °F /  8.6 °C 45.5 °F /  7.5 °C 29.5in /  1000.3hPa SW 4mph /  6.4km/h 10mph /  16.1km/h 93% 0.02in /  0.5mm 0 W/m2
06:28 47.3 °F /  8.5 °C 45.3 °F /  7.4 °C 29.5in /  1000.3hPa West 2.9mph /  4.7km/h 6mph /  9.7km/h 93% 0.02in /  0.5mm 0 W/m2
06:33 47.5 °F /  8.6 °C 45.5 °F /  7.5 °C 29.5in /  1000.3hPa West 2.9mph /  4.7km/h 7mph /  11.3km/h 93% 0.02in /  0.5mm 0 W/m2
06:38 47.5 °F /  8.6 °C 45.5 °F /  7.5 °C 29.5in /  1000.3hPa West 2mph /  3.2km/h 9mph /  14.5km/h 93% 0.02in /  0.5mm 0 W/m2
06:43 47.5 °F /  8.6 °C 45.5 °F /  7.5 °C 29.5in /  1000.3hPa WNW 4mph /  6.4km/h 8mph /  12.9km/h 93% 0.02in /  0.5mm 0 W/m2
06:48 47.7 °F /  8.7 °C 45.7 °F /  7.6 °C 29.5in /  1000.3hPa West 8.1mph /  13km/h 9mph /  14.5km/h 93% 0.02in /  0.5mm 0 W/m2
06:53 47.7 °F /  8.7 °C 45.7 °F /  7.6 °C 29.5in /  1000.3hPa West 6.9mph /  11.1km/h 9mph /  14.5km/h 93% 0.02in /  0.5mm 0 W/m2
06:58 47.7 °F /  8.7 °C 45.7 °F /  7.6 °C 29.5in /  1000.3hPa WNW 8.1mph /  13km/h 9mph /  14.5km/h 93% 0.01in /  0.2mm 0 W/m2
07:03 47.7 °F /  8.7 °C 45.5 °F /  7.5 °C 29.5in /  1000.3hPa WSW 4mph /  6.4km/h 7mph /  11.3km/h 92% 0.01in /  0.2mm 0 W/m2
07:08 47.7 °F /  8.7 °C 45.5 °F /  7.5 °C 29.6in /  1000.7hPa West 6.9mph /  11.1km/h 9mph /  14.5km/h 92% 0.01in /  0.2mm 0 W/m2
07:13 47.7 °F /  8.7 °C 45.5 °F /  7.5 °C 29.5in /  1000.3hPa West 4mph /  6.4km/h 11mph /  17.7km/h 92% 0in /  0.0mm 0 W/m2
07:18 47.7 °F /  8.7 °C 45.5 °F /  7.5 °C 29.6in /  1000.7hPa WNW 2.9mph /  4.7km/h 9mph /  14.5km/h 92% 0in /  0.0mm 0 W/m2
07:23 47.7 °F /  8.7 °C 45.5 °F /  7.5 °C 29.6in /  1000.7hPa WNW 4mph /  6.4km/h 5mph /  8km/h 92% 0in /  0.0mm 0 W/m2
07:28 47.7 °F /  8.7 °C 45.5 °F /  7.5 °C 29.6in /  1000.7hPa WSW 4mph /  6.4km/h 7mph /  11.3km/h 92% 0in /  0.0mm 0 W/m2
07:33 47.8 °F /  8.8 °C 45.7 °F /  7.6 °C 29.6in /  1000.7hPa WNW 2mph /  3.2km/h 7mph /  11.3km/h 92% 0in /  0.0mm 0 W/m2
07:38 47.8 °F /  8.8 °C 45.9 °F /  7.7 °C 29.6in /  1000.7hPa WNW 4mph /  6.4km/h 6mph /  9.7km/h 93% 0in /  0.0mm 0 W/m2
07:43 47.8 °F /  8.8 °C 45.9 °F /  7.7 °C 29.6in /  1000.7hPa WNW 2mph /  3.2km/h 5mph /  8km/h 93% 0in /  0.0mm 0 W/m2
07:48 47.8 °F /  8.8 °C 45.9 °F /  7.7 °C 29.6in /  1000.7hPa West 4mph /  6.4km/h 11mph /  17.7km/h 93% 0in /  0.0mm 0 W/m2
07:53 47.8 °F /  8.8 °C 45.9 °F /  7.7 °C 29.6in /  1001.0hPa West 2mph /  3.2km/h 8mph /  12.9km/h 93% 0in /  0.0mm 0 W/m2
07:58 47.8 °F /  8.8 °C 45.9 °F /  7.7 °C 29.6in /  1001.0hPa NW 4mph /  6.4km/h 11mph /  17.7km/h 93% 0in /  0.0mm 0 W/m2
08:03 47.8 °F /  8.8 °C 45.9 °F /  7.7 °C 29.6in /  1000.7hPa NW 2mph /  3.2km/h 4mph /  6.4km/h 93% 0in /  0.0mm 5 W/m2
08:08 47.8 °F /  8.8 °C 45.7 °F /  7.6 °C 29.6in /  1001.0hPa WNW 2.9mph /  4.7km/h 8mph /  12.9km/h 92% 0in /  0.0mm 9 W/m2
08:13 47.8 °F /  8.8 °C 45.7 °F /  7.6 °C 29.6in /  1001.0hPa West 2.9mph /  4.7km/h 8mph /  12.9km/h 92% 0in /  0.0mm 16 W/m2
08:18 47.8 °F /  8.8 °C 45.7 °F /  7.6 °C 29.6in /  1000.7hPa WNW 4mph /  6.4km/h 5mph /  8km/h 92% 0in /  0.0mm 16 W/m2
08:23 47.7 °F /  8.7 °C 45.5 °F /  7.5 °C 29.6in /  1001.0hPa West 2mph /  3.2km/h 10mph /  16.1km/h 92% 0in /  0.0mm 14 W/m2
08:28 47.7 °F /  8.7 °C 45.5 °F /  7.5 °C 29.6in /  1000.7hPa West 4mph /  6.4km/h 4mph /  6.4km/h 92% 0in /  0.0mm 25 W/m2
08:33 47.7 °F /  8.7 °C 45.5 °F /  7.5 °C 29.6in /  1001.0hPa NW 2.9mph /  4.7km/h 10mph /  16.1km/h 92% 0in /  0.0mm 25 W/m2
08:38 47.7 °F /  8.7 °C 45.5 °F /  7.5 °C 29.6in /  1001.0hPa West 8.1mph /  13km/h 8mph /  12.9km/h 92% 0in /  0.0mm 26 W/m2
08:43 47.7 °F /  8.7 °C 45.5 °F /  7.5 °C 29.6in /  1001.0hPa NW 2mph /  3.2km/h 2mph /  3.2km/h 92% 0in /  0.0mm 60 W/m2
08:48 47.8 °F /  8.8 °C 45.7 °F /  7.6 °C 29.6in /  1001.0hPa West 2.9mph /  4.7km/h 7mph /  11.3km/h 92% 0in /  0.0mm 53 W/m2
08:53 47.8 °F /  8.8 °C 45.7 °F /  7.6 °C 29.6in /  1001.0hPa NW 2mph /  3.2km/h 10mph /  16.1km/h 92% 0in /  0.0mm 33 W/m2
08:58 47.8 °F /  8.8 °C 45.7 °F /  7.6 °C 29.6in /  1001.0hPa WSW 2mph /  3.2km/h 8mph /  12.9km/h 92% 0in /  0.0mm 37 W/m2
09:03 47.8 °F /  8.8 °C 45.7 °F /  7.6 °C 29.6in /  1001.0hPa WSW 4mph /  6.4km/h 8mph /  12.9km/h 92% 0in /  0.0mm 39 W/m2
09:08 47.8 °F /  8.8 °C 45.3 °F /  7.4 °C 29.6in /  1001.0hPa WSW 4mph /  6.4km/h 7mph /  11.3km/h 91% 0in /  0.0mm 39 W/m2
09:13 47.7 °F /  8.7 °C 45.1 °F /  7.3 °C 29.6in /  1001.4hPa WSW 2mph /  3.2km/h 8mph /  12.9km/h 91% 0in /  0.0mm 47 W/m2
09:18 47.7 °F /  8.7 °C 45.5 °F /  7.5 °C 29.6in /  1001.4hPa WNW 4mph /  6.4km/h 6mph /  9.7km/h 92% 0in /  0.0mm 60 W/m2
09:23 47.7 °F /  8.7 °C 45.5 °F /  7.5 °C 29.6in /  1001.4hPa WNW 10.1mph /  16.3km/h 10mph /  16.1km/h 92% 0in /  0.0mm 58 W/m2
09:28 47.7 °F /  8.7 °C 45.1 °F /  7.3 °C 29.6in /  1001.0hPa WNW 4mph /  6.4km/h 7mph /  11.3km/h 91% 0in /  0.0mm 72 W/m2
09:33 47.7 °F /  8.7 °C 45.1 °F /  7.3 °C 29.6in /  1001.4hPa West 2.9mph /  4.7km/h 6mph /  9.7km/h 91% 0in /  0.0mm 77 W/m2
09:38 47.7 °F /  8.7 °C 45.1 °F /  7.3 °C 29.6in /  1001.4hPa West 2mph /  3.2km/h 3mph /  4.8km/h 91% 0in /  0.0mm 77 W/m2
09:43 47.7 °F /  8.7 °C 45.1 °F /  7.3 °C 29.6in /  1001.4hPa West 4mph /  6.4km/h 8mph /  12.9km/h 91% 0in /  0.0mm 76 W/m2
09:48 47.7 °F /  8.7 °C 45.1 °F /  7.3 °C 29.6in /  1001.4hPa WNW 2.9mph /  4.7km/h 8mph /  12.9km/h 91% 0.01in /  0.2mm 35 W/m2
09:53 47.5 °F /  8.6 °C 45 °F /  7.2 °C 29.6in /  1001.4hPa West 4mph /  6.4km/h 13mph /  20.9km/h 91% 0.02in /  0.5mm 30 W/m2
09:58 47.1 °F /  8.4 °C 44.6 °F /  7 °C 29.6in /  1001.4hPa West 4mph /  6.4km/h 8mph /  12.9km/h 91% 0.04in /  1.0mm 33 W/m2
10:03 46.9 °F /  8.3 °C 44.8 °F /  7.1 °C 29.6in /  1001.4hPa SW 0.9mph /  1.4km/h 13mph /  20.9km/h 92% 0.05in /  1.3mm 32 W/m2
10:08 46.9 °F /  8.3 °C 44.8 °F /  7.1 °C 29.6in /  1001.4hPa West 0.9mph /  1.4km/h 3mph /  4.8km/h 92% 0.06in /  1.5mm 30 W/m2
10:13 46.8 °F /  8.2 °C 44.6 °F /  7 °C 29.6in /  1001.4hPa WSW 2.9mph /  4.7km/h 8mph /  12.9km/h 92% 0.06in /  1.5mm 47 W/m2
10:18 46.6 °F /  8.1 °C 44.4 °F /  6.9 °C 29.6in /  1001.4hPa WNW 2mph /  3.2km/h 4mph /  6.4km/h 92% 0.06in /  1.5mm 107 W/m2
10:23 46.6 °F /  8.1 °C 44.4 °F /  6.9 °C 29.6in /  1001.4hPa SW 2mph /  3.2km/h 3mph /  4.8km/h 92% 0.07in /  1.8mm 69 W/m2
10:28 46.6 °F /  8.1 °C 44.4 °F /  6.9 °C 29.6in /  1001.4hPa West 2mph /  3.2km/h 5mph /  8km/h 92% 0.08in /  2.0mm 74 W/m2
10:33 46.8 °F /  8.2 °C 44.6 °F /  7 °C 29.6in /  1001.4hPa West 4mph /  6.4km/h 4mph /  6.4km/h 92% 0.08in /  2.0mm 146 W/m2
10:38 46.9 °F /  8.3 °C 45 °F /  7.2 °C 29.6in /  1001.4hPa WNW 2.9mph /  4.7km/h 4mph /  6.4km/h 93% 0.08in /  2.0mm 262 W/m2
10:43 47.3 °F /  8.5 °C 45.3 °F /  7.4 °C 29.6in /  1001.4hPa South 2.9mph /  4.7km/h 3mph /  4.8km/h 93% 0.08in /  2.0mm 158 W/m2
10:48 47.7 °F /  8.7 °C 45.7 °F /  7.6 °C 29.6in /  1001.4hPa NW 2mph /  3.2km/h 4mph /  6.4km/h 93% 0.07in /  1.8mm 213 W/m2
10:53 48 °F /  8.9 °C 46 °F /  7.8 °C 29.6in /  1001.4hPa West 0.9mph /  1.4km/h 4mph /  6.4km/h 93% 0.07in /  1.8mm 102 W/m2
10:58 48 °F /  8.9 °C 46 °F /  7.8 °C 29.6in /  1001.4hPa West 0.9mph /  1.4km/h 2mph /  3.2km/h 93% 0.08in /  2.0mm 123 W/m2
11:03 48 °F /  8.9 °C 46 °F /  7.8 °C 29.6in /  1001.4hPa West 0.9mph /  1.4km/h 3mph /  4.8km/h 93% 0.09in /  2.3mm 65 W/m2
11:08 48 °F /  8.9 °C 46 °F /  7.8 °C 29.6in /  1001.4hPa WNW 4mph /  6.4km/h 7mph /  11.3km/h 93% 0.11in /  2.8mm 63 W/m2
11:13 48 °F /  8.9 °C 46 °F /  7.8 °C 29.6in /  1001.4hPa West 2mph /  3.2km/h 3mph /  4.8km/h 93% 0.16in /  4.1mm 63 W/m2
11:18 48 °F /  8.9 °C 46 °F /  7.8 °C 29.6in /  1001.4hPa West 4mph /  6.4km/h 6mph /  9.7km/h 93% 0.2in /  5.1mm 70 W/m2
11:23 47.7 °F /  8.7 °C 45.5 °F /  7.5 °C 29.6in /  1001.4hPa WNW 2.9mph /  4.7km/h 5mph /  8km/h 92% 0.2in /  5.1mm 56 W/m2
11:28 47.3 °F /  8.5 °C 44.8 °F /  7.1 °C 29.6in /  1001.4hPa West 4mph /  6.4km/h 10mph /  16.1km/h 91% 0.2in /  5.1mm 63 W/m2
11:33 47.5 °F /  8.6 °C 45 °F /  7.2 °C 29.6in /  1001.4hPa WSW 4mph /  6.4km/h 6mph /  9.7km/h 91% 0.2in /  5.1mm 74 W/m2
11:38 47.5 °F /  8.6 °C 45 °F /  7.2 °C 29.6in /  1001.4hPa West 2mph /  3.2km/h 5mph /  8km/h 91% 0.2in /  5.1mm 47 W/m2
11:43 47.7 °F /  8.7 °C 45.5 °F /  7.5 °C 29.6in /  1001.4hPa WSW 4mph /  6.4km/h 4mph /  6.4km/h 92% 0.2in /  5.1mm 62 W/m2
11:48 48 °F /  8.9 °C 46 °F /  7.8 °C 29.6in /  1001.0hPa NW 2mph /  3.2km/h 7mph /  11.3km/h 93% 0.2in /  5.1mm 97 W/m2
11:53 48.7 °F /  9.3 °C 46.8 °F /  8.2 °C 29.6in /  1001.0hPa West 2.9mph /  4.7km/h 5mph /  8km/h 93% 0.18in /  4.6mm 172 W/m2
11:58 49.5 °F /  9.7 °C 47.5 °F /  8.6 °C 29.6in /  1001.0hPa West 6mph /  9.7km/h 9mph /  14.5km/h 93% 0.16in /  4.1mm 197 W/m2
12:03 49.8 °F /  9.9 °C 47.8 °F /  8.8 °C 29.6in /  1001.0hPa WSW 2mph /  3.2km/h 7mph /  11.3km/h 93% 0.13in /  3.3mm 105 W/m2
12:08 50 °F /  10 °C 47.8 °F /  8.8 °C 29.6in /  1001.0hPa WNW 2mph /  3.2km/h 3mph /  4.8km/h 92% 0.11in /  2.8mm 120 W/m2
12:13 50.2 °F /  10.1 °C 47.7 °F /  8.7 °C 29.6in /  1001.0hPa WNW 2mph /  3.2km/h 10mph /  16.1km/h 91% 0.06in /  1.5mm 169 W/m2
12:18 50.4 °F /  10.2 °C 47.5 °F /  8.6 °C 29.6in /  1001.0hPa WSW 4mph /  6.4km/h 7mph /  11.3km/h 90% 0.01in /  0.2mm 200 W/m2
12:23 50.4 °F /  10.2 °C 47.3 °F /  8.5 °C 29.6in /  1001.0hPa WNW 6.9mph /  11.1km/h 13mph /  20.9km/h 89% 0in /  0.0mm 229 W/m2
12:28 50.4 °F /  10.2 °C 46.9 °F /  8.3 °C 29.6in /  1001.0hPa WNW 4.9mph /  7.9km/h 11mph /  17.7km/h 88% 0in /  0.0mm 190 W/m2
12:33 50.4 °F /  10.2 °C 46.6 °F /  8.1 °C 29.6in /  1001.0hPa WNW 2mph /  3.2km/h 11mph /  17.7km/h 87% 0in /  0.0mm 290 W/m2
12:38 50.4 °F /  10.2 °C 46.6 °F /  8.1 °C 29.6in /  1001.0hPa WNW 2mph /  3.2km/h 10mph /  16.1km/h 87% 0in /  0.0mm 287 W/m2
12:43 50.4 °F /  10.2 °C 46.6 °F /  8.1 °C 29.6in /  1001.0hPa WNW 6mph /  9.7km/h 11mph /  17.7km/h 87% 0in /  0.0mm 216 W/m2
12:48 50.4 °F /  10.2 °C 46.6 °F /  8.1 °C 29.6in /  1001.0hPa West 2.9mph /  4.7km/h 7mph /  11.3km/h 87% 0in /  0.0mm 262 W/m2
12:53 50.5 °F /  10.3 °C 46.8 °F /  8.2 °C 29.6in /  1001.0hPa West 6mph /  9.7km/h 11mph /  17.7km/h 87% 0in /  0.0mm 638 W/m2
12:58 51.1 °F /  10.6 °C 47.7 °F /  8.7 °C 29.6in /  1000.7hPa WNW 2.9mph /  4.7km/h 5mph /  8km/h 88% 0in /  0.0mm 657 W/m2
13:03 51.6 °F /  10.9 °C 47.5 °F /  8.6 °C 29.6in /  1001.0hPa WSW 6.9mph /  11.1km/h 10mph /  16.1km/h 86% 0in /  0.0mm 144 W/m2
13:08 51.8 °F /  11 °C 47.5 °F /  8.6 °C 29.6in /  1000.7hPa WNW 4mph /  6.4km/h 9mph /  14.5km/h 85% 0in /  0.0mm 429 W/m2
13:13 51.6 °F /  10.9 °C 46.9 °F /  8.3 °C 29.6in /  1001.0hPa West 10.1mph /  16.3km/h 11mph /  17.7km/h 84% 0in /  0.0mm 162 W/m2
13:18 51.6 °F /  10.9 °C 46.2 °F /  7.9 °C 29.6in /  1000.7hPa West 4mph /  6.4km/h 13mph /  20.9km/h 82% 0in /  0.0mm 162 W/m2
13:23 51.8 °F /  11 °C 46.4 °F /  8 °C 29.6in /  1000.7hPa NW 6.9mph /  11.1km/h 9mph /  14.5km/h 82% 0in /  0.0mm 237 W/m2
13:28 52 °F /  11.1 °C 46.6 °F /  8.1 °C 29.6in /  1000.7hPa WNW 4mph /  6.4km/h 11mph /  17.7km/h 82% 0in /  0.0mm 135 W/m2
13:33 51.8 °F /  11 °C 46.4 °F /  8 °C 29.6in /  1000.7hPa West 8.1mph /  13km/h 8mph /  12.9km/h 82% 0in /  0.0mm 91 W/m2
13:38 51.6 °F /  10.9 °C 46.6 °F /  8.1 °C 29.5in /  1000.3hPa WNW 8.9mph /  14.3km/h 9mph /  14.5km/h 83% 0in /  0.0mm 244 W/m2
13:43 51.6 °F /  10.9 °C 46.9 °F /  8.3 °C 29.5in /  1000.3hPa SW 2mph /  3.2km/h 8mph /  12.9km/h 84% 0in /  0.0mm 132 W/m2
13:48 51.4 °F /  10.8 °C 47.1 °F /  8.4 °C 29.6in /  1000.7hPa West 2.9mph /  4.7km/h 8mph /  12.9km/h 85% 0.01in /  0.2mm 100 W/m2
13:54 50.7 °F /  10.4 °C 46.8 °F /  8.2 °C 29.6in /  1000.7hPa WNW 6mph /  9.7km/h 6mph /  9.7km/h 86% 0.03in /  0.8mm 156 W/m2
13:59 50.5 °F /  10.3 °C 47.1 °F /  8.4 °C 29.5in /  1000.3hPa NW 2.9mph /  4.7km/h 3mph /  4.8km/h 88% 0.04in /  1.0mm 229 W/m2
14:04 50.7 °F /  10.4 °C 47.8 °F /  8.8 °C 29.6in /  1000.7hPa WNW 2.9mph /  4.7km/h 9mph /  14.5km/h 90% 0.04in /  1.0mm 258 W/m2
14:09 50.9 °F /  10.5 °C 48 °F /  8.9 °C 29.5in /  1000.3hPa WSW 4.9mph /  7.9km/h 7mph /  11.3km/h 90% 0.04in /  1.0mm 116 W/m2
14:14 50.5 °F /  10.3 °C 46.8 °F /  8.2 °C 29.6in /  1001.0hPa West 2.9mph /  4.7km/h 13mph /  20.9km/h 87% 0.06in /  1.5mm 35 W/m2
14:19 48.9 °F /  9.4 °C 45 °F /  7.2 °C 29.6in /  1001.0hPa WSW 4.9mph /  7.9km/h 11mph /  17.7km/h 86% 0.13in /  3.3mm 56 W/m2
14:24 47.7 °F /  8.7 °C 44.2 °F /  6.8 °C 29.6in /  1000.7hPa West 2.9mph /  4.7km/h 12mph /  19.3km/h 88% 0.14in /  3.6mm 105 W/m2
14:29 47.1 °F /  8.4 °C 44.4 °F /  6.9 °C 29.6in /  1000.7hPa WSW 8.1mph /  13km/h 8mph /  12.9km/h 90% 0.14in /  3.6mm 107 W/m2
14:34 47.1 °F /  8.4 °C 44.6 °F /  7 °C 29.6in /  1000.7hPa West 2.9mph /  4.7km/h 9mph /  14.5km/h 91% 0.14in /  3.6mm 149 W/m2
14:39 47.1 °F /  8.4 °C 44.6 °F /  7 °C 29.6in /  1000.7hPa WSW 4mph /  6.4km/h 7mph /  11.3km/h 91% 0.14in /  3.6mm 141 W/m2
14:44 47.5 °F /  8.6 °C 45.3 °F /  7.4 °C 29.6in /  1001.0hPa WSW 8.9mph /  14.3km/h 11mph /  17.7km/h 92% 0.15in /  3.8mm 135 W/m2
14:49 47.5 °F /  8.6 °C 45 °F /  7.2 °C 29.6in /  1000.7hPa NW 4mph /  6.4km/h 9mph /  14.5km/h 91% 0.14in /  3.6mm 134 W/m2
14:54 47.7 °F /  8.7 °C 45.1 °F /  7.3 °C 29.6in /  1000.7hPa WNW 4mph /  6.4km/h 7mph /  11.3km/h 91% 0.12in /  3.0mm 195 W/m2
14:59 48.4 °F /  9.1 °C 46.2 °F /  7.9 °C 29.6in /  1000.7hPa WNW 4mph /  6.4km/h 9mph /  14.5km/h 92% 0.11in /  2.8mm 612 W/m2
15:04 48.9 °F /  9.4 °C 46.4 °F /  8 °C 29.6in /  1000.7hPa West 6mph /  9.7km/h 10mph /  16.1km/h 91% 0.11in /  2.8mm 577 W/m2
15:09 49.5 °F /  9.7 °C 46.9 °F /  8.3 °C 29.5in /  1000.3hPa SW 4mph /  6.4km/h 8mph /  12.9km/h 91% 0.11in /  2.8mm 573 W/m2
15:14 50.2 °F /  10.1 °C 47.3 °F /  8.5 °C 29.5in /  1000.3hPa WSW 2.9mph /  4.7km/h 10mph /  16.1km/h 90% 0.09in /  2.3mm 564 W/m2
15:19 50.9 °F /  10.5 °C 47.5 °F /  8.6 °C 29.5in /  1000.3hPa West 6mph /  9.7km/h 9mph /  14.5km/h 88% 0.02in /  0.5mm 471 W/m2
15:24 51.4 °F /  10.8 °C 47.7 °F /  8.7 °C 29.5in /  1000.3hPa WSW 11mph /  17.7km/h 11mph /  17.7km/h 87% 0.01in /  0.2mm 156 W/m2
15:29 51.3 °F /  10.7 °C 47.3 °F /  8.5 °C 29.5in /  1000.3hPa Calm   9mph /  14.5km/h 86% 0.01in /  0.2mm 72 W/m2
15:34 51.3 °F /  10.7 °C 47.5 °F /  8.6 °C 29.5in /  1000.3hPa West 2mph /  3.2km/h 7mph /  11.3km/h 87% 0.01in /  0.2mm 563 W/m2
15:39 52 °F /  11.1 °C 48.2 °F /  9 °C 29.5in /  1000.3hPa WNW 4mph /  6.4km/h 7mph /  11.3km/h 87% 0.01in /  0.2mm 715 W/m2
15:44 52.7 °F /  11.5 °C 48.6 °F /  9.2 °C 29.5in /  1000.3hPa West 4mph /  6.4km/h 7mph /  11.3km/h 86% 0in /  0.0mm 652 W/m2
15:49 53.6 °F /  12 °C 48.6 °F /  9.2 °C 29.5in /  1000.3hPa West 8.9mph /  14.3km/h 10mph /  16.1km/h 83% 0in /  0.0mm 626 W/m2
15:54 53.4 °F /  11.9 °C 47.7 °F /  8.7 °C 29.5in /  1000.3hPa NNE 4mph /  6.4km/h 9mph /  14.5km/h 81% 0in /  0.0mm 269 W/m2
15:59 53.1 °F /  11.7 °C 47.3 °F /  8.5 °C 29.5in /  1000.3hPa NW 4mph /  6.4km/h 8mph /  12.9km/h 81% 0in /  0.0mm 97 W/m2
16:04 53.1 °F /  11.7 °C 47.3 °F /  8.5 °C 29.6in /  1000.7hPa WNW 4mph /  6.4km/h 9mph /  14.5km/h 81% 0in /  0.0mm 512 W/m2
16:09 52.9 °F /  11.6 °C 47.3 °F /  8.5 °C 29.5in /  1000.3hPa WNW 0.9mph /  1.4km/h 3mph /  4.8km/h 81% 0in /  0.0mm 67 W/m2
16:14 52.5 °F /  11.4 °C 47.1 °F /  8.4 °C 29.6in /  1000.7hPa West 2mph /  3.2km/h 8mph /  12.9km/h 82% 0in /  0.0mm 118 W/m2
16:19 52.3 °F /  11.3 °C 46.4 °F /  8 °C 29.6in /  1000.7hPa West 2.9mph /  4.7km/h 10mph /  16.1km/h 80% 0in /  0.0mm 67 W/m2
16:24 52 °F /  11.1 °C 46.4 °F /  8 °C 29.6in /  1000.7hPa WNW 2mph /  3.2km/h 7mph /  11.3km/h 81% 0in /  0.0mm 160 W/m2
16:29 52 °F /  11.1 °C 46.4 °F /  8 °C 29.6in /  1000.7hPa WNW 2.9mph /  4.7km/h 9mph /  14.5km/h 81% 0in /  0.0mm 163 W/m2
16:34 52.2 °F /  11.2 °C 46.8 °F /  8.2 °C 29.6in /  1000.7hPa WNW 2.9mph /  4.7km/h 6mph /  9.7km/h 82% 0in /  0.0mm 452 W/m2
16:39 52.7 °F /  11.5 °C 47.3 °F /  8.5 °C 29.6in /  1000.7hPa WNW 0.9mph /  1.4km/h 2mph /  3.2km/h 82% 0in /  0.0mm 420 W/m2
16:44 53.4 °F /  11.9 °C 48 °F /  8.9 °C 29.5in /  1000.3hPa WNW 0.9mph /  1.4km/h 2mph /  3.2km/h 82% 0in /  0.0mm 464 W/m2
16:49 54 °F /  12.2 °C 48.9 °F /  9.4 °C 29.6in /  1000.7hPa Calm   3mph /  4.8km/h 83% 0in /  0.0mm 492 W/m2
16:54 54.3 °F /  12.4 °C 48.6 °F /  9.2 °C 29.6in /  1000.7hPa WNW 0.9mph /  1.4km/h 2mph /  3.2km/h 81% 0in /  0.0mm 144 W/m2
16:59 54.3 °F /  12.4 °C 47.7 °F /  8.7 °C 29.6in /  1000.7hPa West 2.9mph /  4.7km/h 7mph /  11.3km/h 78% 0in /  0.0mm 118 W/m2
17:04 54 °F /  12.2 °C 46.9 °F /  8.3 °C 29.6in /  1000.7hPa WNW 0.9mph /  1.4km/h 7mph /  11.3km/h 77% 0in /  0.0mm 390 W/m2
17:09 54.3 °F /  12.4 °C 46.9 °F /  8.3 °C 29.6in /  1000.7hPa SW 2.9mph /  4.7km/h 9mph /  14.5km/h 76% 0in /  0.0mm 454 W/m2
17:14 54.7 °F /  12.6 °C 46.9 °F /  8.3 °C 29.6in /  1000.7hPa West 6mph /  9.7km/h 8mph /  12.9km/h 75% 0in /  0.0mm 462 W/m2
17:19 54.9 °F /  12.7 °C 46.8 °F /  8.2 °C 29.6in /  1000.7hPa West 6mph /  9.7km/h 9mph /  14.5km/h 74% 0in /  0.0mm 98 W/m2
17:24 54.3 °F /  12.4 °C 46.2 °F /  7.9 °C 29.6in /  1000.7hPa WSW 6.9mph /  11.1km/h 9mph /  14.5km/h 74% 0in /  0.0mm 90 W/m2
17:29 53.8 °F /  12.1 °C 45.3 °F /  7.4 °C 29.6in /  1000.7hPa West 6.9mph /  11.1km/h 11mph /  17.7km/h 73% 0in /  0.0mm 84 W/m2
17:34 53.4 °F /  11.9 °C 45.3 °F /  7.4 °C 29.6in /  1000.7hPa West 6.9mph /  11.1km/h 8mph /  12.9km/h 74% 0in /  0.0mm 72 W/m2
17:39 53.2 °F /  11.8 °C 45.9 °F /  7.7 °C 29.6in /  1000.7hPa NW 0.9mph /  1.4km/h 7mph /  11.3km/h 76% 0in /  0.0mm 70 W/m2
17:44 52.9 °F /  11.6 °C 45.9 °F /  7.7 °C 29.6in /  1000.7hPa WNW 2mph /  3.2km/h 6mph /  9.7km/h 77% 0in /  0.0mm 63 W/m2
17:49 52.5 °F /  11.4 °C 45.9 °F /  7.7 °C 29.6in /  1000.7hPa SW 4.9mph /  7.9km/h 5mph /  8km/h 78% 0in /  0.0mm 83 W/m2
17:54 52.5 °F /  11.4 °C 45.9 °F /  7.7 °C 29.6in /  1000.7hPa West 2.9mph /  4.7km/h 4mph /  6.4km/h 78% 0in /  0.0mm 62 W/m2
17:59 52.5 °F /  11.4 °C 46.6 °F /  8.1 °C 29.6in /  1000.7hPa West 2mph /  3.2km/h 4mph /  6.4km/h 80% 0in /  0.0mm 37 W/m2
18:04 52.5 °F /  11.4 °C 46.6 °F /  8.1 °C 29.6in /  1000.7hPa West 2mph /  3.2km/h 3mph /  4.8km/h 80% 0in /  0.0mm 32 W/m2
18:09 52.3 °F /  11.3 °C 46.4 °F /  8 °C 29.6in /  1000.7hPa West 2.9mph /  4.7km/h 4mph /  6.4km/h 80% 0in /  0.0mm 25 W/m2
18:14 52.3 °F /  11.3 °C 46.9 °F /  8.3 °C 29.6in /  1000.7hPa West 0.9mph /  1.4km/h 2mph /  3.2km/h 82% 0in /  0.0mm 32 W/m2
18:19 52.2 °F /  11.2 °C 46.8 °F /  8.2 °C 29.6in /  1000.7hPa West 4mph /  6.4km/h 4mph /  6.4km/h 82% 0in /  0.0mm 16 W/m2
18:24 52.2 °F /  11.2 °C 47.5 °F /  8.6 °C 29.6in /  1000.7hPa Calm   1mph /  1.6km/h 84% 0in /  0.0mm 9 W/m2
18:29 52 °F /  11.1 °C 47.3 °F /  8.5 °C 29.6in /  1000.7hPa Calm   1mph /  1.6km/h 84% 0.01in /  0.2mm 7 W/m2
18:34 51.8 °F /  11 °C 47.7 °F /  8.7 °C 29.6in /  1000.7hPa WNW 0.9mph /  1.4km/h 1mph /  1.6km/h 86% 0.02in /  0.5mm 5 W/m2
18:39 51.6 °F /  10.9 °C 47.8 °F /  8.8 °C 29.6in /  1000.7hPa Calm     87% 0.02in /  0.5mm 0 W/m2
18:44 51.3 °F /  10.7 °C 47.8 °F /  8.8 °C 29.6in /  1001.0hPa WNW 0.9mph /  1.4km/h 2mph /  3.2km/h 88% 0.03in /  0.8mm 0 W/m2
18:49 51.1 °F /  10.6 °C 48 °F /  8.9 °C 29.6in /  1001.0hPa WNW 0.9mph /  1.4km/h 3mph /  4.8km/h 89% 0.05in /  1.3mm 0 W/m2
18:54 50.5 °F /  10.3 °C 47.5 °F /  8.6 °C 29.6in /  1001.0hPa Calm   3mph /  4.8km/h 89% 0.08in /  2.0mm 0 W/m2
18:59 50.4 °F /  10.2 °C 47.5 °F /  8.6 °C 29.6in /  1001.0hPa Calm   2mph /  3.2km/h 90% 0.11in /  2.8mm 26 W/m2
19:04 49.8 °F /  9.9 °C 46.9 °F /  8.3 °C 29.6in /  1001.0hPa West 2mph /  3.2km/h 6mph /  9.7km/h 90% 0.11in /  2.8mm 9 W/m2
19:09 49.6 °F /  9.8 °C 46.8 °F /  8.2 °C 29.6in /  1000.7hPa WNW 2mph /  3.2km/h 4mph /  6.4km/h 90% 0.11in /  2.8mm 5 W/m2
19:14 49.5 °F /  9.7 °C 46.6 °F /  8.1 °C 29.6in /  1000.7hPa WSW 2mph /  3.2km/h 4mph /  6.4km/h 90% 0.11in /  2.8mm 0 W/m2
19:19 49.3 °F /  9.6 °C 46.2 °F /  7.9 °C 29.6in /  1000.7hPa WSW 0.9mph /  1.4km/h 6mph /  9.7km/h 89% 0.11in /  2.8mm 0 W/m2
19:24 48.9 °F /  9.4 °C 45.9 °F /  7.7 °C 29.6in /  1000.7hPa Calm   2mph /  3.2km/h 89% 0.11in /  2.8mm 0 W/m2
19:29 48.7 °F /  9.3 °C 45.7 °F /  7.6 °C 29.6in /  1000.7hPa Calm   2mph /  3.2km/h 89% 0.1in /  2.5mm 0 W/m2
19:34 48.6 °F /  9.2 °C 45.5 °F /  7.5 °C 29.6in /  1000.7hPa Calm   2mph /  3.2km/h 89% 0.09in /  2.3mm 0 W/m2
19:39 48.4 °F /  9.1 °C 45.3 °F /  7.4 °C 29.6in /  1000.7hPa Calm   2mph /  3.2km/h 89% 0.09in /  2.3mm 0 W/m2
19:44 48.4 °F /  9.1 °C 45.5 °F /  7.5 °C 29.6in /  1000.7hPa WNW 0.9mph /  1.4km/h 2mph /  3.2km/h 90% 0.08in /  2.0mm 0 W/m2
19:49 48 °F /  8.9 °C 45.1 °F /  7.3 °C 29.6in /  1000.7hPa Calm   2mph /  3.2km/h 90% 0.06in /  1.5mm 0 W/m2
19:54 47.8 °F /  8.8 °C 45 °F /  7.2 °C 29.5in /  1000.3hPa Calm   1mph /  1.6km/h 90% 0.03in /  0.8mm 0 W/m2
19:59 47.8 °F /  8.8 °C 45 °F /  7.2 °C 29.5in /  1000.3hPa Calm   1mph /  1.6km/h 90% 0in /  0.0mm 0 W/m2
20:04 47.7 °F /  8.7 °C 45 °F /  7.2 °C 29.5in /  1000.3hPa SW 2mph /  3.2km/h 3mph /  4.8km/h 90% 0in /  0.0mm 0 W/m2
20:09 47.7 °F /  8.7 °C 45 °F /  7.2 °C 29.5in /  1000.3hPa WNW 2mph /  3.2km/h 2mph /  3.2km/h 90% 0in /  0.0mm 0 W/m2
20:14 47.7 °F /  8.7 °C 45 °F /  7.2 °C 29.5in /  1000.3hPa Calm   1mph /  1.6km/h 90% 0in /  0.0mm 0 W/m2
20:19 47.7 °F /  8.7 °C 45 °F /  7.2 °C 29.5in /  1000.3hPa Calm   3mph /  4.8km/h 90% 0in /  0.0mm 0 W/m2
20:24 47.7 °F /  8.7 °C 45 °F /  7.2 °C 29.5in /  1000.3hPa Calm   1mph /  1.6km/h 90% 0in /  0.0mm 0 W/m2
20:29 47.7 °F /  8.7 °C 45.1 °F /  7.3 °C 29.5in /  1000.3hPa Calm   3mph /  4.8km/h 91% 0in /  0.0mm 0 W/m2
20:34 47.7 °F /  8.7 °C 45.1 °F /  7.3 °C 29.5in /  1000.3hPa Calm   2mph /  3.2km/h 91% 0in /  0.0mm 0 W/m2
20:39 47.5 °F /  8.6 °C 45 °F /  7.2 °C 29.5in /  1000.3hPa Calm   1mph /  1.6km/h 91% 0in /  0.0mm 0 W/m2
20:44 47.5 °F /  8.6 °C 45 °F /  7.2 °C 29.5in /  1000.3hPa Calm   2mph /  3.2km/h 91% 0in /  0.0mm 0 W/m2
20:49 47.5 °F /  8.6 °C 45 °F /  7.2 °C 29.5in /  1000.3hPa Calm   1mph /  1.6km/h 91% 0in /  0.0mm 0 W/m2
20:54 47.5 °F /  8.6 °C 45 °F /  7.2 °C 29.5in /  1000.0hPa North 0.9mph /  1.4km/h 3mph /  4.8km/h 91% 0in /  0.0mm 0 W/m2
20:59 47.3 °F /  8.5 °C 44.8 °F /  7.1 °C 29.5in /  1000.3hPa Calm   2mph /  3.2km/h 91% 0in /  0.0mm 0 W/m2
21:04 47.1 °F /  8.4 °C 45 °F /  7.2 °C 29.5in /  1000.3hPa Calm   3mph /  4.8km/h 92% 0in /  0.0mm 0 W/m2
21:09 47.1 °F /  8.4 °C 45 °F /  7.2 °C 29.5in /  1000.0hPa WSW 0.9mph /  1.4km/h 1mph /  1.6km/h 92% 0in /  0.0mm 0 W/m2
21:14 47.1 °F /  8.4 °C 45 °F /  7.2 °C 29.5in /  1000.0hPa Calm   2mph /  3.2km/h 92% 0in /  0.0mm 0 W/m2
21:19 47.3 °F /  8.5 °C 45.1 °F /  7.3 °C 29.5in /  1000.0hPa WNW 2mph /  3.2km/h 2mph /  3.2km/h 92% 0in /  0.0mm 0 W/m2
21:24 47.5 °F /  8.6 °C 45.3 °F /  7.4 °C 29.5in /  1000.0hPa East 0.9mph /  1.4km/h 1mph /  1.6km/h 92% 0.01in /  0.2mm 0 W/m2
21:29 47.7 °F /  8.7 °C 45.5 °F /  7.5 °C 29.5in /  1000.0hPa North 0.9mph /  1.4km/h 2mph /  3.2km/h 92% 0.01in /  0.2mm 0 W/m2
21:34 47.7 °F /  8.7 °C 45.5 °F /  7.5 °C 29.5in /  1000.0hPa ESE 2mph /  3.2km/h 3mph /  4.8km/h 92% 0.01in /  0.2mm 0 W/m2
21:40 47.7 °F /  8.7 °C 45.5 °F /  7.5 °C 29.5in /  1000.0hPa SW 0.9mph /  1.4km/h 1mph /  1.6km/h 92% 0.01in /  0.2mm 0 W/m2
21:45 47.7 °F /  8.7 °C 45.5 °F /  7.5 °C 29.5in /  999.7hPa West 0.9mph /  1.4km/h 4mph /  6.4km/h 92% 0.01in /  0.2mm 0 W/m2
21:50 32 °F /   °C 32 °F /   °C 29.5in /  999.7hPa WSW 0.9mph /  1.4km/h 2mph /  3.2km/h % 0.01in /  0.2mm W/m2
21:55 32 °F /   °C 32 °F /   °C 29.5in /  999.7hPa NNW 0.9mph /  1.4km/h 2mph /  3.2km/h % 0.01in /  0.2mm W/m2
22:00 32 °F /   °C 32 °F /   °C 29.5in /  999.7hPa Calm   1mph /  1.6km/h % 0.01in /  0.2mm W/m2
22:05 32 °F /   °C 32 °F /   °C 29.5in /  999.7hPa Calm   2mph /  3.2km/h % 0.01in /  0.2mm W/m2
22:10 32 °F /   °C 32 °F /   °C 29.5in /  999.3hPa East 2mph /  3.2km/h 3mph /  4.8km/h % 0.01in /  0.2mm W/m2
22:15 32 °F /   °C 32 °F /   °C 29.5in /  999.3hPa Calm   1mph /  1.6km/h % 0.01in /  0.2mm W/m2
22:20 32 °F /   °C 32 °F /   °C 29.5in /  999.3hPa SSW 0.9mph /  1.4km/h 2mph /  3.2km/h % 0.01in /  0.2mm W/m2
22:25 32 °F /   °C 32 °F /   °C 29.5in /  999.3hPa South 2mph /  3.2km/h 2mph /  3.2km/h % 0in /  0.0mm W/m2
22:30 32 °F /   °C 32 °F /   °C 29.5in /  999.3hPa Calm   3mph /  4.8km/h % 0in /  0.0mm W/m2
22:35 32 °F /   °C 32 °F /   °C 29.5in /  999.3hPa Calm   1mph /  1.6km/h % 0in /  0.0mm W/m2
22:40 32 °F /   °C 32 °F /   °C 29.5in /  999.3hPa ESE 0.9mph /  1.4km/h 2mph /  3.2km/h % 0in /  0.0mm W/m2
22:45 32 °F /   °C 32 °F /   °C 29.5in /  999.3hPa Calm   1mph /  1.6km/h % 0in /  0.0mm W/m2
22:50 32 °F /   °C 32 °F /   °C 29.5in /  999.0hPa Calm   2mph /  3.2km/h % 0in /  0.0mm W/m2
22:55 32 °F /   °C 32 °F /   °C 29.5in /  999.0hPa Calm   2mph /  3.2km/h % 0in /  0.0mm W/m2
23:00 32 °F /   °C 32 °F /   °C 29.5in /  999.0hPa Calm   2mph /  3.2km/h % 0in /  0.0mm W/m2
23:05 32 °F /   °C 32 °F /   °C 29.5in /  998.6hPa NE 0.9mph /  1.4km/h 4mph /  6.4km/h % 0in /  0.0mm W/m2
23:10 32 °F /   °C 32 °F /   °C 29.5in /  998.6hPa NNW 2mph /  3.2km/h 5mph /  8km/h % 0in /  0.0mm W/m2
23:15 32 °F /   °C 32 °F /   °C 29.5in /  998.6hPa WNW 2mph /  3.2km/h 6mph /  9.7km/h % 0in /  0.0mm W/m2
23:20 32 °F /   °C 32 °F /   °C 29.5in /  998.6hPa NE 2mph /  3.2km/h 3mph /  4.8km/h % 0in /  0.0mm W/m2
23:25 32 °F /   °C 32 °F /   °C 29.5in /  998.6hPa North 2mph /  3.2km/h 2mph /  3.2km/h % 0in /  0.0mm W/m2
23:30 32 °F /   °C 32 °F /   °C 29.5in /  998.3hPa SW 0.9mph /  1.4km/h 2mph /  3.2km/h % 0in /  0.0mm W/m2
23:35 32 °F /   °C 32 °F /   °C 29.5in /  998.3hPa West 0.9mph /  1.4km/h 3mph /  4.8km/h % 0in /  0.0mm W/m2
23:40 48.9 °F /  9.4 °C 46.9 °F /  8.3 °C 29.5in /  998.3hPa NNW 0.9mph /  1.4km/h 2mph /  3.2km/h 93% 0.1in /  2.5mm 0 W/m2
23:45 49.1 °F /  9.5 °C 47.1 °F /  8.4 °C 29.5in /  998.3hPa NW 2mph /  3.2km/h 2mph /  3.2km/h 93% 0.13in /  3.3mm 0 W/m2
23:50 49.1 °F /  9.5 °C 47.1 °F /  8.4 °C 29.5in /  998.0hPa West 2mph /  3.2km/h 2mph /  3.2km/h 93% 0.14in /  3.6mm 0 W/m2
23:55 49.1 °F /  9.5 °C 47.1 °F /  8.4 °C 29.5in /  998.0hPa Calm   8mph /  12.9km/h 93% 0.16in /  4.1mm 0 W/m2
Juneau County Weather
Compliments of Weather Underground - 4 mb